sensor_id;sensor_type;location;lat;lon;timestamp;temperature;humidity
15713;DHT22;7957;51.608;6.916;2023-05-01T00:02:12;12.00;1.00
15713;DHT22;7957;51.608;6.916;2023-05-01T00:04:38;11.90;1.00
15713;DHT22;7957;51.608;6.916;2023-05-01T00:07:06;11.90;1.00
15713;DHT22;7957;51.608;6.916;2023-05-01T00:09:33;11.90;1.00
15713;DHT22;7957;51.608;6.916;2023-05-01T00:12:00;11.90;1.00
15713;DHT22;7957;51.608;6.916;2023-05-01T00:14:30;11.80;1.00
15713;DHT22;7957;51.608;6.916;2023-05-01T00:16:57;11.80;1.00
15713;DHT22;7957;51.608;6.916;2023-05-01T00:19:24;11.80;1.00
15713;DHT22;7957;51.608;6.916;2023-05-01T00:21:51;11.80;1.00
15713;DHT22;7957;51.608;6.916;2023-05-01T00:24:17;11.70;1.00
15713;DHT22;7957;51.608;6.916;2023-05-01T00:26:44;11.70;1.00
15713;DHT22;7957;51.608;6.916;2023-05-01T00:29:12;11.70;1.00
15713;DHT22;7957;51.608;6.916;2023-05-01T00:31:40;11.70;1.00
15713;DHT22;7957;51.608;6.916;2023-05-01T00:34:07;11.70;1.00
15713;DHT22;7957;51.608;6.916;2023-05-01T00:36:35;11.70;1.00
15713;DHT22;7957;51.608;6.916;2023-05-01T00:39:02;11.70;1.00
15713;DHT22;7957;51.608;6.916;2023-05-01T00:41:30;11.60;1.00
15713;DHT22;7957;51.608;6.916;2023-05-01T00:43:57;11.60;1.00
15713;DHT22;7957;51.608;6.916;2023-05-01T00:46:24;11.60;1.00
15713;DHT22;7957;51.608;6.916;2023-05-01T00:48:53;11.50;1.00
15713;DHT22;7957;51.608;6.916;2023-05-01T00:51:20;11.50;1.00
15713;DHT22;7957;51.608;6.916;2023-05-01T00:53:48;11.50;1.00
15713;DHT22;7957;51.608;6.916;2023-05-01T00:56:15;11.50;1.00
15713;DHT22;7957;51.608;6.916;2023-05-01T00:58:43;11.50;1.00
15713;DHT22;7957;51.608;6.916;2023-05-01T01:01:11;11.50;1.00
15713;DHT22;7957;51.608;6.916;2023-05-01T01:03:38;11.40;1.00
15713;DHT22;7957;51.608;6.916;2023-05-01T01:06:12;11.40;1.00
15713;DHT22;7957;51.608;6.916;2023-05-01T01:08:45;11.40;1.00
15713;DHT22;7957;51.608;6.916;2023-05-01T01:11:21;11.40;1.00
15713;DHT22;7957;51.608;6.916;2023-05-01T01:13:55;11.30;1.00
15713;DHT22;7957;51.608;6.916;2023-05-01T01:16:28;11.40;1.00
15713;DHT22;7957;51.608;6.916;2023-05-01T01:19:05;11.30;1.00
15713;DHT22;7957;51.608;6.916;2023-05-01T01:21:45;11.30;1.00
15713;DHT22;7957;51.608;6.916;2023-05-01T01:24:44;11.30;1.00
15713;DHT22;7957;51.608;6.916;2023-05-01T01:27:38;11.30;1.00
15713;DHT22;7957;51.608;6.916;2023-05-01T01:30:33;11.30;1.00
15713;DHT22;7957;51.608;6.916;2023-05-01T01:33:43;11.30;1.00
15713;DHT22;7957;51.608;6.916;2023-05-01T01:36:18;11.30;1.00
15713;DHT22;7957;51.608;6.916;2023-05-01T01:38:52;11.30;1.00
15713;DHT22;7957;51.608;6.916;2023-05-01T01:41:23;11.30;1.00
15713;DHT22;7957;51.608;6.916;2023-05-01T01:43:59;11.30;1.00
15713;DHT22;7957;51.608;6.916;2023-05-01T01:46:26;11.30;1.00
15713;DHT22;7957;51.608;6.916;2023-05-01T01:48:56;11.30;1.00
15713;DHT22;7957;51.608;6.916;2023-05-01T01:51:25;11.30;1.00
15713;DHT22;7957;51.608;6.916;2023-05-01T01:53:56;11.30;1.00
15713;DHT22;7957;51.608;6.916;2023-05-01T01:56:25;11.30;1.00
15713;DHT22;7957;51.608;6.916;2023-05-01T01:58:52;11.30;1.00
15713;DHT22;7957;51.608;6.916;2023-05-01T02:01:21;11.30;1.00
15713;DHT22;7957;51.608;6.916;2023-05-01T02:03:48;11.40;1.00
15713;DHT22;7957;51.608;6.916;2023-05-01T02:06:18;11.30;2.90
15713;DHT22;7957;51.608;6.916;2023-05-01T02:08:47;11.40;9.50
15713;DHT22;7957;51.608;6.916;2023-05-01T02:11:18;11.30;16.60
15713;DHT22;7957;51.608;6.916;2023-05-01T02:13:46;11.30;14.70
15713;DHT22;7957;51.608;6.916;2023-05-01T02:16:15;11.40;18.80
15713;DHT22;7957;51.608;6.916;2023-05-01T02:18:44;11.30;22.90
15713;DHT22;7957;51.608;6.916;2023-05-01T02:21:13;11.40;32.00
15713;DHT22;7957;51.608;6.916;2023-05-01T02:23:42;11.30;32.90
15713;DHT22;7957;51.608;6.916;2023-05-01T02:26:14;11.30;42.90
15713;DHT22;7957;51.608;6.916;2023-05-01T02:28:42;11.40;44.30
15713;DHT22;7957;51.608;6.916;2023-05-01T02:31:09;11.40;45.10
15713;DHT22;7957;51.608;6.916;2023-05-01T02:33:36;11.30;44.80
15713;DHT22;7957;51.608;6.916;2023-05-01T02:36:03;11.30;48.00
15713;DHT22;7957;51.608;6.916;2023-05-01T02:38:30;11.30;48.00
15713;DHT22;7957;51.608;6.916;2023-05-01T02:41:00;11.40;51.00
15713;DHT22;7957;51.608;6.916;2023-05-01T02:43:28;11.40;55.90
15713;DHT22;7957;51.608;6.916;2023-05-01T02:45:57;11.30;59.00
15713;DHT22;7957;51.608;6.916;2023-05-01T02:48:27;11.30;64.40
15713;DHT22;7957;51.608;6.916;2023-05-01T02:50:56;11.30;65.10
15713;DHT22;7957;51.608;6.916;2023-05-01T02:53:24;11.30;72.90
15713;DHT22;7957;51.608;6.916;2023-05-01T02:55:51;11.30;72.30
15713;DHT22;7957;51.608;6.916;2023-05-01T02:58:20;11.30;76.00
15713;DHT22;7957;51.608;6.916;2023-05-01T03:00:48;11.30;82.30
15713;DHT22;7957;51.608;6.916;2023-05-01T03:03:15;11.30;89.90
15713;DHT22;7957;51.608;6.916;2023-05-01T03:05:42;11.30;91.20
15713;DHT22;7957;51.608;6.916;2023-05-01T03:08:09;11.30;93.00
15713;DHT22;7957;51.608;6.916;2023-05-01T03:10:38;11.30;94.40
15713;DHT22;7957;51.608;6.916;2023-05-01T03:13:07;11.30;98.50
15713;DHT22;7957;51.608;6.916;2023-05-01T03:15:36;11.30;99.90
15713;DHT22;7957;51.608;6.916;2023-05-01T03:18:03;11.30;99.90
15713;DHT22;7957;51.608;6.916;2023-05-01T03:20:30;11.20;99.90
15713;DHT22;7957;51.608;6.916;2023-05-01T03:22:57;11.20;99.90
15713;DHT22;7957;51.608;6.916;2023-05-01T03:25:24;11.20;99.90
15713;DHT22;7957;51.608;6.916;2023-05-01T03:27:51;11.20;99.90
15713;DHT22;7957;51.608;6.916;2023-05-01T03:30:18;11.20;99.90
15713;DHT22;7957;51.608;6.916;2023-05-01T03:32:47;11.20;99.90
15713;DHT22;7957;51.608;6.916;2023-05-01T03:35:14;11.20;99.90
15713;DHT22;7957;51.608;6.916;2023-05-01T03:37:40;11.20;99.90
15713;DHT22;7957;51.608;6.916;2023-05-01T03:40:08;11.20;99.90
15713;DHT22;7957;51.608;6.916;2023-05-01T03:42:36;11.20;99.90
15713;DHT22;7957;51.608;6.916;2023-05-01T03:45:04;11.20;99.90
15713;DHT22;7957;51.608;6.916;2023-05-01T03:47:31;11.20;99.90
15713;DHT22;7957;51.608;6.916;2023-05-01T03:50:02;11.20;99.90
15713;DHT22;7957;51.608;6.916;2023-05-01T03:52:29;11.10;99.90
15713;DHT22;7957;51.608;6.916;2023-05-01T03:54:56;11.10;99.90
15713;DHT22;7957;51.608;6.916;2023-05-01T03:57:23;11.10;99.90
15713;DHT22;7957;51.608;6.916;2023-05-01T03:59:51;11.10;99.90
15713;DHT22;7957;51.608;6.916;2023-05-01T04:02:19;11.10;99.90
15713;DHT22;7957;51.608;6.916;2023-05-01T04:04:46;11.10;99.90
15713;DHT22;7957;51.608;6.916;2023-05-01T04:07:14;11.10;99.90
15713;DHT22;7957;51.608;6.916;2023-05-01T04:09:41;11.10;99.90
15713;DHT22;7957;51.608;6.916;2023-05-01T04:12:08;11.00;99.90
15713;DHT22;7957;51.608;6.916;2023-05-01T04:14:35;11.10;99.90
15713;DHT22;7957;51.608;6.916;2023-05-01T04:17:05;11.00;99.90
15713;DHT22;7957;51.608;6.916;2023-05-01T04:19:32;11.00;99.90
15713;DHT22;7957;51.608;6.916;2023-05-01T04:21:59;11.00;99.90
15713;DHT22;7957;51.608;6.916;2023-05-01T04:24:28;11.00;99.90
15713;DHT22;7957;51.608;6.916;2023-05-01T04:26:55;11.00;99.90
15713;DHT22;7957;51.608;6.916;2023-05-01T04:29:23;10.90;99.90
15713;DHT22;7957;51.608;6.916;2023-05-01T04:31:49;10.90;99.90
15713;DHT22;7957;51.608;6.916;2023-05-01T04:34:16;10.90;99.90
15713;DHT22;7957;51.608;6.916;2023-05-01T04:36:44;10.90;99.90
15713;DHT22;7957;51.608;6.916;2023-05-01T04:39:10;10.90;99.90
15713;DHT22;7957;51.608;6.916;2023-05-01T04:41:39;10.90;99.90
15713;DHT22;7957;51.608;6.916;2023-05-01T04:44:06;10.80;99.90
15713;DHT22;7957;51.608;6.916;2023-05-01T04:46:33;10.80;99.90
15713;DHT22;7957;51.608;6.916;2023-05-01T04:49:00;10.80;99.90
15713;DHT22;7957;51.608;6.916;2023-05-01T04:51:27;10.80;99.90
15713;DHT22;7957;51.608;6.916;2023-05-01T04:53:54;10.80;99.90
15713;DHT22;7957;51.608;6.916;2023-05-01T04:56:21;10.80;99.90
15713;DHT22;7957;51.608;6.916;2023-05-01T04:58:49;10.80;99.90
15713;DHT22;7957;51.608;6.916;2023-05-01T05:01:16;10.80;99.90
15713;DHT22;7957;51.608;6.916;2023-05-01T05:03:43;10.80;99.90
15713;DHT22;7957;51.608;6.916;2023-05-01T05:06:11;10.80;99.90
15713;DHT22;7957;51.608;6.916;2023-05-01T05:08:37;10.80;99.90
15713;DHT22;7957;51.608;6.916;2023-05-01T05:11:04;10.80;99.90
15713;DHT22;7957;51.608;6.916;2023-05-01T05:13:31;10.80;99.90
15713;DHT22;7957;51.608;6.916;2023-05-01T05:16:00;10.80;99.90
15713;DHT22;7957;51.608;6.916;2023-05-01T05:18:26;10.80;99.90
15713;DHT22;7957;51.608;6.916;2023-05-01T05:20:53;10.80;99.90
15713;DHT22;7957;51.608;6.916;2023-05-01T05:23:20;10.80;99.90
15713;DHT22;7957;51.608;6.916;2023-05-01T05:25:47;10.90;99.90
15713;DHT22;7957;51.608;6.916;2023-05-01T05:28:14;10.90;99.90
15713;DHT22;7957;51.608;6.916;2023-05-01T05:30:42;10.90;99.90
15713;DHT22;7957;51.608;6.916;2023-05-01T05:33:10;10.90;99.90
15713;DHT22;7957;51.608;6.916;2023-05-01T05:35:37;10.90;99.90
15713;DHT22;7957;51.608;6.916;2023-05-01T05:38:04;11.00;99.90
15713;DHT22;7957;51.608;6.916;2023-05-01T05:40:31;11.00;99.90
15713;DHT22;7957;51.608;6.916;2023-05-01T05:42:58;11.00;99.90
15713;DHT22;7957;51.608;6.916;2023-05-01T05:45:25;11.00;99.90
15713;DHT22;7957;51.608;6.916;2023-05-01T05:47:53;11.10;99.90
15713;DHT22;7957;51.608;6.916;2023-05-01T05:50:22;11.10;99.90
15713;DHT22;7957;51.608;6.916;2023-05-01T05:52:49;11.10;99.90
15713;DHT22;7957;51.608;6.916;2023-05-01T05:55:16;11.10;99.90
15713;DHT22;7957;51.608;6.916;2023-05-01T05:57:43;11.20;99.90
15713;DHT22;7957;51.608;6.916;2023-05-01T06:00:11;11.20;99.90
15713;DHT22;7957;51.608;6.916;2023-05-01T06:02:39;11.20;99.90
15713;DHT22;7957;51.608;6.916;2023-05-01T06:05:07;11.30;99.90
15713;DHT22;7957;51.608;6.916;2023-05-01T06:07:36;11.30;99.90
15713;DHT22;7957;51.608;6.916;2023-05-01T06:10:04;11.30;99.90
15713;DHT22;7957;51.608;6.916;2023-05-01T06:12:31;11.40;99.90
15713;DHT22;7957;51.608;6.916;2023-05-01T06:14:58;11.40;99.90
15713;DHT22;7957;51.608;6.916;2023-05-01T06:17:25;11.50;99.90
15713;DHT22;7957;51.608;6.916;2023-05-01T06:19:52;11.50;99.90
15713;DHT22;7957;51.608;6.916;2023-05-01T06:22:20;11.60;99.90
15713;DHT22;7957;51.608;6.916;2023-05-01T06:24:48;11.60;99.90
15713;DHT22;7957;51.608;6.916;2023-05-01T06:27:15;11.60;99.90
15713;DHT22;7957;51.608;6.916;2023-05-01T06:29:42;11.70;99.90
15713;DHT22;7957;51.608;6.916;2023-05-01T06:32:09;11.70;99.90
15713;DHT22;7957;51.608;6.916;2023-05-01T06:34:36;11.80;99.90
15713;DHT22;7957;51.608;6.916;2023-05-01T06:37:02;11.80;99.90
15713;DHT22;7957;51.608;6.916;2023-05-01T06:39:32;11.80;99.90
15713;DHT22;7957;51.608;6.916;2023-05-01T06:42:00;11.80;99.90
15713;DHT22;7957;51.608;6.916;2023-05-01T06:44:27;11.90;99.90
15713;DHT22;7957;51.608;6.916;2023-05-01T06:46:54;11.90;99.90
15713;DHT22;7957;51.608;6.916;2023-05-01T06:49:23;12.00;99.90
15713;DHT22;7957;51.608;6.916;2023-05-01T06:51:50;12.00;99.90
15713;DHT22;7957;51.608;6.916;2023-05-01T06:54:16;12.10;95.50
15713;DHT22;7957;51.608;6.916;2023-05-01T06:56:43;12.10;91.40
15713;DHT22;7957;51.608;6.916;2023-05-01T06:59:12;12.20;90.40
15713;DHT22;7957;51.608;6.916;2023-05-01T07:01:39;12.20;71.10
15713;DHT22;7957;51.608;6.916;2023-05-01T07:04:06;12.30;68.40
15713;DHT22;7957;51.608;6.916;2023-05-01T07:06:33;12.30;59.00
15713;DHT22;7957;51.608;6.916;2023-05-01T07:09:00;12.40;56.70
15713;DHT22;7957;51.608;6.916;2023-05-01T07:11:28;12.40;48.00
15713;DHT22;7957;51.608;6.916;2023-05-01T07:13:55;12.50;43.80
15713;DHT22;7957;51.608;6.916;2023-05-01T07:16:23;12.60;37.10
15713;DHT22;7957;51.608;6.916;2023-05-01T07:18:50;12.60;28.00
15713;DHT22;7957;51.608;6.916;2023-05-01T07:21:18;12.60;26.10
15713;DHT22;7957;51.608;6.916;2023-05-01T07:23:44;12.70;22.20
15713;DHT22;7957;51.608;6.916;2023-05-01T07:26:12;12.80;17.20
15713;DHT22;7957;51.608;6.916;2023-05-01T07:28:39;12.80;16.30
15713;DHT22;7957;51.608;6.916;2023-05-01T07:31:07;12.90;15.50
15713;DHT22;7957;51.608;6.916;2023-05-01T07:33:36;13.00;14.00
15713;DHT22;7957;51.608;6.916;2023-05-01T07:36:03;13.10;12.70
15713;DHT22;7957;51.608;6.916;2023-05-01T07:38:32;13.20;11.30
15713;DHT22;7957;51.608;6.916;2023-05-01T07:40:59;13.20;4.50
15713;DHT22;7957;51.608;6.916;2023-05-01T07:43:26;13.30;1.00
15713;DHT22;7957;51.608;6.916;2023-05-01T07:45:54;13.40;1.00
15713;DHT22;7957;51.608;6.916;2023-05-01T07:48:22;13.50;1.00
15713;DHT22;7957;51.608;6.916;2023-05-01T07:50:51;13.60;1.00
15713;DHT22;7957;51.608;6.916;2023-05-01T07:53:18;13.70;1.00
15713;DHT22;7957;51.608;6.916;2023-05-01T07:55:47;13.70;1.00
15713;DHT22;7957;51.608;6.916;2023-05-01T07:58:14;13.80;1.00
15713;DHT22;7957;51.608;6.916;2023-05-01T08:00:41;13.90;1.00
15713;DHT22;7957;51.608;6.916;2023-05-01T08:03:10;13.90;1.00
15713;DHT22;7957;51.608;6.916;2023-05-01T08:05:39;14.00;1.00
15713;DHT22;7957;51.608;6.916;2023-05-01T08:08:08;14.10;1.00
15713;DHT22;7957;51.608;6.916;2023-05-01T08:10:37;14.20;1.00
15713;DHT22;7957;51.608;6.916;2023-05-01T08:13:04;14.30;1.00
15713;DHT22;7957;51.608;6.916;2023-05-01T08:15:31;14.40;1.00
15713;DHT22;7957;51.608;6.916;2023-05-01T08:17:58;14.40;1.00
15713;DHT22;7957;51.608;6.916;2023-05-01T08:20:28;14.50;1.00
15713;DHT22;7957;51.608;6.916;2023-05-01T08:22:55;14.60;1.00
15713;DHT22;7957;51.608;6.916;2023-05-01T08:25:23;14.70;1.00
15713;DHT22;7957;51.608;6.916;2023-05-01T08:27:50;14.80;1.00
15713;DHT22;7957;51.608;6.916;2023-05-01T08:30:17;14.90;1.00
15713;DHT22;7957;51.608;6.916;2023-05-01T08:32:45;15.00;1.00
15713;DHT22;7957;51.608;6.916;2023-05-01T08:35:12;15.10;1.00
15713;DHT22;7957;51.608;6.916;2023-05-01T08:37:39;15.10;99.90
15713;DHT22;7957;51.608;6.916;2023-05-01T08:40:07;15.20;99.90
15713;DHT22;7957;51.608;6.916;2023-05-01T08:42:36;15.30;99.90
15713;DHT22;7957;51.608;6.916;2023-05-01T08:45:06;15.40;99.90
15713;DHT22;7957;51.608;6.916;2023-05-01T08:47:34;15.50;99.90
15713;DHT22;7957;51.608;6.916;2023-05-01T08:50:09;15.70;99.90
15713;DHT22;7957;51.608;6.916;2023-05-01T08:52:39;15.90;99.90
15713;DHT22;7957;51.608;6.916;2023-05-01T08:55:11;16.10;99.90
15713;DHT22;7957;51.608;6.916;2023-05-01T08:57:45;16.30;99.90
15713;DHT22;7957;51.608;6.916;2023-05-01T09:00:16;16.40;99.90
15713;DHT22;7957;51.608;6.916;2023-05-01T09:02:46;16.60;99.90
15713;DHT22;7957;51.608;6.916;2023-05-01T09:05:14;16.70;99.90
15713;DHT22;7957;51.608;6.916;2023-05-01T09:07:42;16.90;99.90
15713;DHT22;7957;51.608;6.916;2023-05-01T09:10:10;17.10;99.90
15713;DHT22;7957;51.608;6.916;2023-05-01T09:12:40;17.20;99.90
15713;DHT22;7957;51.608;6.916;2023-05-01T09:15:11;17.30;80.80
15713;DHT22;7957;51.608;6.916;2023-05-01T09:17:39;17.50;40.90
15713;DHT22;7957;51.608;6.916;2023-05-01T09:20:07;17.60;1.00
15713;DHT22;7957;51.608;6.916;2023-05-01T09:22:35;17.60;1.00
15713;DHT22;7957;51.608;6.916;2023-05-01T09:25:03;17.70;1.00
15713;DHT22;7957;51.608;6.916;2023-05-01T09:27:33;17.70;1.00
15713;DHT22;7957;51.608;6.916;2023-05-01T09:30:00;17.80;1.00
15713;DHT22;7957;51.608;6.916;2023-05-01T09:32:29;17.90;1.00
15713;DHT22;7957;51.608;6.916;2023-05-01T09:35:09;18.00;1.00
15713;DHT22;7957;51.608;6.916;2023-05-01T09:37:36;18.00;1.00
15713;DHT22;7957;51.608;6.916;2023-05-01T09:40:06;18.00;1.00
15713;DHT22;7957;51.608;6.916;2023-05-01T09:42:46;18.10;1.00
15713;DHT22;7957;51.608;6.916;2023-05-01T09:45:16;18.10;1.00
15713;DHT22;7957;51.608;6.916;2023-05-01T09:47:45;18.10;1.00
15713;DHT22;7957;51.608;6.916;2023-05-01T09:50:28;18.10;1.00
15713;DHT22;7957;51.608;6.916;2023-05-01T09:52:55;18.20;1.00
15713;DHT22;7957;51.608;6.916;2023-05-01T09:55:23;18.30;1.00
15713;DHT22;7957;51.608;6.916;2023-05-01T09:57:52;18.40;1.00
15713;DHT22;7957;51.608;6.916;2023-05-01T10:00:19;18.50;1.00
15713;DHT22;7957;51.608;6.916;2023-05-01T10:02:48;18.60;1.00
15713;DHT22;7957;51.608;6.916;2023-05-01T10:05:19;18.60;99.90
15713;DHT22;7957;51.608;6.916;2023-05-01T10:08:05;18.70;99.90
15713;DHT22;7957;51.608;6.916;2023-05-01T10:10:35;18.80;99.90
15713;DHT22;7957;51.608;6.916;2023-05-01T10:13:12;18.80;99.90
15713;DHT22;7957;51.608;6.916;2023-05-01T10:15:42;19.00;99.90
15713;DHT22;7957;51.608;6.916;2023-05-01T10:18:13;19.10;99.90
15713;DHT22;7957;51.608;6.916;2023-05-01T10:20:40;19.30;99.90
15713;DHT22;7957;51.608;6.916;2023-05-01T10:23:07;19.40;99.90
15713;DHT22;7957;51.608;6.916;2023-05-01T10:25:36;19.40;99.90
15713;DHT22;7957;51.608;6.916;2023-05-01T10:28:03;19.40;99.90
15713;DHT22;7957;51.608;6.916;2023-05-01T10:30:31;19.50;99.90
15713;DHT22;7957;51.608;6.916;2023-05-01T10:32:58;19.60;99.90
15713;DHT22;7957;51.608;6.916;2023-05-01T10:35:36;19.60;99.90
15713;DHT22;7957;51.608;6.916;2023-05-01T10:38:06;19.70;99.90
15713;DHT22;7957;51.608;6.916;2023-05-01T10:40:44;19.70;99.90
15713;DHT22;7957;51.608;6.916;2023-05-01T10:43:19;19.90;99.90
15713;DHT22;7957;51.608;6.916;2023-05-01T10:45:50;20.00;99.90
15713;DHT22;7957;51.608;6.916;2023-05-01T10:48:55;20.20;99.90
15713;DHT22;7957;51.608;6.916;2023-05-01T10:51:24;20.30;99.90
15713;DHT22;7957;51.608;6.916;2023-05-01T10:54:23;20.50;99.90
15713;DHT22;7957;51.608;6.916;2023-05-01T10:56:53;20.70;99.90
15713;DHT22;7957;51.608;6.916;2023-05-01T10:59:21;21.00;99.90
15713;DHT22;7957;51.608;6.916;2023-05-01T11:01:50;21.20;99.90
15713;DHT22;7957;51.608;6.916;2023-05-01T11:04:45;21.20;99.90
15713;DHT22;7957;51.608;6.916;2023-05-01T11:07:20;21.30;84.80
15713;DHT22;7957;51.608;6.916;2023-05-01T11:09:51;21.50;77.80
15713;DHT22;7957;51.608;6.916;2023-05-01T11:12:48;21.90;77.50
15713;DHT22;7957;51.608;6.916;2023-05-01T11:15:27;22.10;56.80
15713;DHT22;7957;51.608;6.916;2023-05-01T11:17:55;22.50;40.00
15713;DHT22;7957;51.608;6.916;2023-05-01T11:20:45;22.60;22.60
15713;DHT22;7957;51.608;6.916;2023-05-01T11:23:20;22.80;3.70
15713;DHT22;7957;51.608;6.916;2023-05-01T11:25:48;22.90;1.00
15713;DHT22;7957;51.608;6.916;2023-05-01T11:28:19;22.90;1.00
15713;DHT22;7957;51.608;6.916;2023-05-01T11:30:52;22.90;1.00
15713;DHT22;7957;51.608;6.916;2023-05-01T11:33:23;23.00;1.00
15713;DHT22;7957;51.608;6.916;2023-05-01T11:36:00;23.00;1.00
15713;DHT22;7957;51.608;6.916;2023-05-01T11:38:51;23.20;1.00
15713;DHT22;7957;51.608;6.916;2023-05-01T11:41:21;23.30;1.00
15713;DHT22;7957;51.608;6.916;2023-05-01T11:43:49;23.40;1.00
15713;DHT22;7957;51.608;6.916;2023-05-01T11:46:24;23.50;1.00
15713;DHT22;7957;51.608;6.916;2023-05-01T11:48:52;23.70;1.00
15713;DHT22;7957;51.608;6.916;2023-05-01T11:51:19;23.60;1.00
15713;DHT22;7957;51.608;6.916;2023-05-01T11:54:01;23.40;1.00
15713;DHT22;7957;51.608;6.916;2023-05-01T11:56:29;23.30;1.00
15713;DHT22;7957;51.608;6.916;2023-05-01T11:58:59;23.10;1.00
15713;DHT22;7957;51.608;6.916;2023-05-01T12:01:33;23.00;1.00
15713;DHT22;7957;51.608;6.916;2023-05-01T12:04:00;22.90;1.00
15713;DHT22;7957;51.608;6.916;2023-05-01T12:06:35;22.90;1.00
15713;DHT22;7957;51.608;6.916;2023-05-01T12:09:06;23.00;1.00
15713;DHT22;7957;51.608;6.916;2023-05-01T12:11:37;23.00;99.90
15713;DHT22;7957;51.608;6.916;2023-05-01T12:14:05;22.80;99.90
15713;DHT22;7957;51.608;6.916;2023-05-01T12:16:37;22.70;99.90
15713;DHT22;7957;51.608;6.916;2023-05-01T12:19:07;22.40;99.90
15713;DHT22;7957;51.608;6.916;2023-05-01T12:21:34;22.60;99.90
15713;DHT22;7957;51.608;6.916;2023-05-01T12:24:11;22.90;99.90
15713;DHT22;7957;51.608;6.916;2023-05-01T12:26:39;23.10;99.90
15713;DHT22;7957;51.608;6.916;2023-05-01T12:29:07;23.20;99.90
15713;DHT22;7957;51.608;6.916;2023-05-01T12:31:34;23.50;99.90
15713;DHT22;7957;51.608;6.916;2023-05-01T12:34:03;23.80;99.90
15713;DHT22;7957;51.608;6.916;2023-05-01T12:36:31;23.80;99.90
15713;DHT22;7957;51.608;6.916;2023-05-01T12:39:00;23.80;99.90
15713;DHT22;7957;51.608;6.916;2023-05-01T12:41:36;23.70;99.90
15713;DHT22;7957;51.608;6.916;2023-05-01T12:44:18;23.80;99.90
15713;DHT22;7957;51.608;6.916;2023-05-01T12:46:58;24.10;99.90
15713;DHT22;7957;51.608;6.916;2023-05-01T12:49:31;24.30;99.90
15713;DHT22;7957;51.608;6.916;2023-05-01T12:52:03;24.40;99.90
15713;DHT22;7957;51.608;6.916;2023-05-01T12:54:35;24.50;99.90
15713;DHT22;7957;51.608;6.916;2023-05-01T12:57:08;24.60;99.90
15713;DHT22;7957;51.608;6.916;2023-05-01T12:59:37;24.80;99.90
15713;DHT22;7957;51.608;6.916;2023-05-01T13:02:06;24.90;99.90
15713;DHT22;7957;51.608;6.916;2023-05-01T13:04:35;24.90;96.80
15713;DHT22;7957;51.608;6.916;2023-05-01T13:07:10;24.90;72.10
15713;DHT22;7957;51.608;6.916;2023-05-01T13:09:37;24.90;49.40
15713;DHT22;7957;51.608;6.916;2023-05-01T13:12:08;25.10;50.10
15713;DHT22;7957;51.608;6.916;2023-05-01T13:14:35;25.20;42.40
15713;DHT22;7957;51.608;6.916;2023-05-01T13:17:10;25.20;19.80
15713;DHT22;7957;51.608;6.916;2023-05-01T13:19:37;25.20;5.60
15713;DHT22;7957;51.608;6.916;2023-05-01T13:22:07;25.10;1.00
15713;DHT22;7957;51.608;6.916;2023-05-01T13:24:35;24.80;1.00
15713;DHT22;7957;51.608;6.916;2023-05-01T13:27:03;24.50;1.00
15713;DHT22;7957;51.608;6.916;2023-05-01T13:29:32;24.40;1.00
15713;DHT22;7957;51.608;6.916;2023-05-01T13:31:59;24.30;1.00
15713;DHT22;7957;51.608;6.916;2023-05-01T13:34:31;23.90;1.00
15713;DHT22;7957;51.608;6.916;2023-05-01T13:37:02;23.60;1.00
15713;DHT22;7957;51.608;6.916;2023-05-01T13:39:29;23.40;1.00
15713;DHT22;7957;51.608;6.916;2023-05-01T13:42:01;23.30;1.00
15713;DHT22;7957;51.608;6.916;2023-05-01T13:44:32;23.40;1.00
15713;DHT22;7957;51.608;6.916;2023-05-01T13:47:01;23.20;1.00
15713;DHT22;7957;51.608;6.916;2023-05-01T13:49:28;22.90;1.00
15713;DHT22;7957;51.608;6.916;2023-05-01T13:51:55;22.70;1.00
15713;DHT22;7957;51.608;6.916;2023-05-01T13:54:22;22.60;1.00
15713;DHT22;7957;51.608;6.916;2023-05-01T13:56:50;22.50;1.00
15713;DHT22;7957;51.608;6.916;2023-05-01T13:59:17;22.40;1.00
15713;DHT22;7957;51.608;6.916;2023-05-01T14:01:45;22.40;1.00
15713;DHT22;7957;51.608;6.916;2023-05-01T14:04:15;22.30;1.00
15713;DHT22;7957;51.608;6.916;2023-05-01T14:06:43;22.10;1.00
15713;DHT22;7957;51.608;6.916;2023-05-01T14:09:11;21.90;1.00
15713;DHT22;7957;51.608;6.916;2023-05-01T14:11:43;21.90;1.00
15713;DHT22;7957;51.608;6.916;2023-05-01T14:14:14;21.80;1.00
15713;DHT22;7957;51.608;6.916;2023-05-01T14:16:42;21.70;1.00
15713;DHT22;7957;51.608;6.916;2023-05-01T14:19:15;21.60;1.00
15713;DHT22;7957;51.608;6.916;2023-05-01T14:21:43;21.60;1.00
15713;DHT22;7957;51.608;6.916;2023-05-01T14:24:10;21.50;1.00
15713;DHT22;7957;51.608;6.916;2023-05-01T14:26:41;21.50;1.00
15713;DHT22;7957;51.608;6.916;2023-05-01T14:29:20;21.50;1.00
15713;DHT22;7957;51.608;6.916;2023-05-01T14:31:48;21.40;1.00
15713;DHT22;7957;51.608;6.916;2023-05-01T14:34:17;21.40;1.00
15713;DHT22;7957;51.608;6.916;2023-05-01T14:36:47;21.40;1.00
15713;DHT22;7957;51.608;6.916;2023-05-01T14:39:15;21.40;1.00
15713;DHT22;7957;51.608;6.916;2023-05-01T14:41:42;21.30;1.00
15713;DHT22;7957;51.608;6.916;2023-05-01T14:44:15;21.30;1.00
15713;DHT22;7957;51.608;6.916;2023-05-01T14:46:45;21.10;99.90
15713;DHT22;7957;51.608;6.916;2023-05-01T14:49:20;21.10;99.90
15713;DHT22;7957;51.608;6.916;2023-05-01T14:51:47;21.00;99.90
15713;DHT22;7957;51.608;6.916;2023-05-01T14:54:14;21.00;99.90
15713;DHT22;7957;51.608;6.916;2023-05-01T14:56:42;20.90;99.90
15713;DHT22;7957;51.608;6.916;2023-05-01T14:59:09;20.90;99.90
15713;DHT22;7957;51.608;6.916;2023-05-01T15:01:36;20.90;99.90
15713;DHT22;7957;51.608;6.916;2023-05-01T15:04:04;20.80;1.00
15713;DHT22;7957;51.608;6.916;2023-05-01T15:06:33;20.80;1.00
15713;DHT22;7957;51.608;6.916;2023-05-01T15:09:00;20.80;1.00
15713;DHT22;7957;51.608;6.916;2023-05-01T15:11:27;20.70;99.90
15713;DHT22;7957;51.608;6.916;2023-05-01T15:13:55;20.50;99.90
15713;DHT22;7957;51.608;6.916;2023-05-01T15:16:21;20.40;99.90
15713;DHT22;7957;51.608;6.916;2023-05-01T15:18:48;20.20;99.90
15713;DHT22;7957;51.608;6.916;2023-05-01T15:21:17;20.00;99.90
15713;DHT22;7957;51.608;6.916;2023-05-01T15:23:45;20.00;99.90
15713;DHT22;7957;51.608;6.916;2023-05-01T15:26:12;19.70;99.90
15713;DHT22;7957;51.608;6.916;2023-05-01T15:28:39;19.60;99.90
15713;DHT22;7957;51.608;6.916;2023-05-01T15:31:06;19.40;99.90
15713;DHT22;7957;51.608;6.916;2023-05-01T15:33:33;19.30;99.90
15713;DHT22;7957;51.608;6.916;2023-05-01T15:36:00;19.20;99.90
15713;DHT22;7957;51.608;6.916;2023-05-01T15:38:27;19.20;99.90
15713;DHT22;7957;51.608;6.916;2023-05-01T15:40:56;19.10;1.00
15713;DHT22;7957;51.608;6.916;2023-05-01T15:43:22;19.00;1.00
15713;DHT22;7957;51.608;6.916;2023-05-01T15:45:50;18.90;1.00
15713;DHT22;7957;51.608;6.916;2023-05-01T15:48:17;18.90;1.00
15713;DHT22;7957;51.608;6.916;2023-05-01T15:50:44;18.80;1.00
15713;DHT22;7957;51.608;6.916;2023-05-01T15:53:11;18.80;1.00
15713;DHT22;7957;51.608;6.916;2023-05-01T15:55:38;18.80;1.00
15713;DHT22;7957;51.608;6.916;2023-05-01T15:58:06;18.80;1.00
15713;DHT22;7957;51.608;6.916;2023-05-01T16:00:33;18.80;1.00
15713;DHT22;7957;51.608;6.916;2023-05-01T16:03:02;18.70;1.00
15713;DHT22;7957;51.608;6.916;2023-05-01T16:05:30;18.70;1.00
15713;DHT22;7957;51.608;6.916;2023-05-01T16:07:59;18.60;1.00